sensor_id;sensor_type;location;lat;lon;timestamp;pressure;altitude;pressure_sealevel;temperature;humidity
56082;BME280;41957;52.060;5.138;2022-09-09T00:02:02;100812.38;;;22.49;57.11
56082;BME280;41957;52.060;5.138;2022-09-09T00:04:32;100817.72;;;22.49;57.19
56082;BME280;41957;52.060;5.138;2022-09-09T00:10:00;100812.69;;;22.44;57.19
56082;BME280;41957;52.060;5.138;2022-09-09T00:15:07;100810.78;;;22.46;57.01
56082;BME280;41957;52.060;5.138;2022-09-09T00:17:49;100804.66;;;22.44;57.22
56082;BME280;41957;52.060;5.138;2022-09-09T00:21:01;100814.59;;;22.42;57.06
56082;BME280;41957;52.060;5.138;2022-09-09T00:23:33;100809.25;;;22.42;57.22
56082;BME280;41957;52.060;5.138;2022-09-09T00:26:02;100805.84;;;22.40;57.47
56082;BME280;41957;52.060;5.138;2022-09-09T00:28:29;100805.84;;;22.40;57.04
56082;BME280;41957;52.060;5.138;2022-09-09T00:31:00;100801.41;;;22.39;57.25
56082;BME280;41957;52.060;5.138;2022-09-09T00:33:32;100804.22;;;22.37;57.07
56082;BME280;41957;52.060;5.138;2022-09-09T00:36:00;100799.78;;;22.36;57.15
56082;BME280;41957;52.060;5.138;2022-09-09T00:38:33;100798.22;;;22.34;56.97
56082;BME280;41957;52.060;5.138;2022-09-09T00:41:11;100791.97;;;22.33;57.10
56082;BME280;41957;52.060;5.138;2022-09-09T00:43:40;100802.69;;;22.33;57.35
56082;BME280;41957;52.060;5.138;2022-09-09T00:46:24;100802.81;;;22.32;57.13
56082;BME280;41957;52.060;5.138;2022-09-09T00:51:44;100811.03;;;22.29;57.15
56082;BME280;41957;52.060;5.138;2022-09-09T00:57:17;100808.38;;;22.29;57.37
56082;BME280;41957;52.060;5.138;2022-09-09T00:59:52;100805.78;;;22.27;57.36
56082;BME280;41957;52.060;5.138;2022-09-09T01:02:29;100806.88;;;22.25;57.33
56082;BME280;41957;52.060;5.138;2022-09-09T01:05:13;100804.19;;;22.25;57.50
56082;BME280;41957;52.060;5.138;2022-09-09T01:07:44;100806.94;;;22.23;57.25
56082;BME280;41957;52.060;5.138;2022-09-09T01:10:32;100790.03;;;22.23;57.27
56082;BME280;41957;52.060;5.138;2022-09-09T01:13:05;100792.59;;;22.24;57.13
56082;BME280;41957;52.060;5.138;2022-09-09T01:15:34;100791.94;;;22.20;57.41
56082;BME280;41957;52.060;5.138;2022-09-09T01:18:10;100792.91;;;22.19;57.31
56082;BME280;41957;52.060;5.138;2022-09-09T01:21:02;100795.59;;;22.19;57.14
56082;BME280;41957;52.060;5.138;2022-09-09T01:26:41;100785.94;;;22.17;57.40
56082;BME280;41957;52.060;5.138;2022-09-09T01:29:15;100793.13;;;22.16;57.26
56082;BME280;41957;52.060;5.138;2022-09-09T01:31:43;100792.31;;;22.14;57.29
56082;BME280;41957;52.060;5.138;2022-09-09T01:34:16;100793.28;;;22.13;57.23
56082;BME280;41957;52.060;5.138;2022-09-09T01:36:46;100789.63;;;22.14;57.18
56082;BME280;41957;52.060;5.138;2022-09-09T01:39:15;100791.47;;;22.14;57.32
56082;BME280;41957;52.060;5.138;2022-09-09T01:41:40;100791.53;;;22.12;57.25
56082;BME280;41957;52.060;5.138;2022-09-09T01:44:07;100781.81;;;22.11;57.39
56082;BME280;41957;52.060;5.138;2022-09-09T01:46:33;100782.78;;;22.10;57.25
56082;BME280;41957;52.060;5.138;2022-09-09T01:48:59;100765.94;;;22.08;57.26
56082;BME280;41957;52.060;5.138;2022-09-09T01:51:25;100769.41;;;22.10;57.02
56082;BME280;41957;52.060;5.138;2022-09-09T01:53:51;100770.47;;;22.08;57.26
56082;BME280;41957;52.060;5.138;2022-09-09T01:56:32;100765.94;;;22.08;57.22
56082;BME280;41957;52.060;5.138;2022-09-09T02:01:57;100767.00;;;22.06;57.13
56082;BME280;41957;52.060;5.138;2022-09-09T02:04:35;100764.34;;;22.06;57.16
56082;BME280;41957;52.060;5.138;2022-09-09T02:07:01;100757.34;;;22.03;57.12
56082;BME280;41957;52.060;5.138;2022-09-09T02:09:29;100759.94;;;22.05;57.09
56082;BME280;41957;52.060;5.138;2022-09-09T02:12:01;100759.94;;;22.05;57.38
56082;BME280;41957;52.060;5.138;2022-09-09T02:14:32;100759.09;;;22.04;57.23
56082;BME280;41957;52.060;5.138;2022-09-09T02:17:05;100758.44;;;22.01;57.11
56082;BME280;41957;52.060;5.138;2022-09-09T02:19:37;100762.91;;;22.00;57.25
56082;BME280;41957;52.060;5.138;2022-09-09T02:22:04;100759.31;;;22.01;57.13
56082;BME280;41957;52.060;5.138;2022-09-09T02:24:32;100757.69;;;21.98;57.21
56082;BME280;41957;52.060;5.138;2022-09-09T02:27:02;100758.53;;;21.99;57.21
56082;BME280;41957;52.060;5.138;2022-09-09T02:29:33;100754.03;;;21.99;57.21
56082;BME280;41957;52.060;5.138;2022-09-09T02:32:02;100756.81;;;21.98;57.34
56082;BME280;41957;52.060;5.138;2022-09-09T02:34:33;100765.72;;;21.98;57.23
56082;BME280;41957;52.060;5.138;2022-09-09T02:37:03;100755.97;;;21.97;57.11
56082;BME280;41957;52.060;5.138;2022-09-09T02:39:29;100757.69;;;21.98;56.94
56082;BME280;41957;52.060;5.138;2022-09-09T02:41:54;100746.31;;;21.95;57.39
56082;BME280;41957;52.060;5.138;2022-09-09T02:44:19;100751.69;;;21.95;57.09
56082;BME280;41957;52.060;5.138;2022-09-09T02:49:56;100742.78;;;21.94;57.19
56082;BME280;41957;52.060;5.138;2022-09-09T02:58:09;100745.69;;;21.91;57.02
56082;BME280;41957;52.060;5.138;2022-09-09T03:00:37;100750.06;;;21.92;57.21
56082;BME280;41957;52.060;5.138;2022-09-09T03:03:07;100742.88;;;21.93;57.19
56082;BME280;41957;52.060;5.138;2022-09-09T03:05:34;100750.06;;;21.92;57.24
56082;BME280;41957;52.060;5.138;2022-09-09T03:07:59;100750.06;;;21.92;57.11
56082;BME280;41957;52.060;5.138;2022-09-09T03:10:25;100742.31;;;21.88;57.04
56082;BME280;41957;52.060;5.138;2022-09-09T03:12:50;100737.72;;;21.90;57.17
56082;BME280;41957;52.060;5.138;2022-09-09T03:15:16;100737.84;;;21.88;57.30
56082;BME280;41957;52.060;5.138;2022-09-09T03:17:41;100744.06;;;21.89;57.28
56082;BME280;41957;52.060;5.138;2022-09-09T03:20:07;100742.22;;;21.89;56.99
56082;BME280;41957;52.060;5.138;2022-09-09T03:22:33;100747.66;;;21.88;57.05
56082;BME280;41957;52.060;5.138;2022-09-09T03:24:59;100744.25;;;21.86;57.18
56082;BME280;41957;52.060;5.138;2022-09-09T03:27:24;100746.94;;;21.86;57.28
56082;BME280;41957;52.060;5.138;2022-09-09T03:29:50;100739.75;;;21.86;56.85
56082;BME280;41957;52.060;5.138;2022-09-09T03:34:43;100744.34;;;21.84;57.12
56082;BME280;41957;52.060;5.138;2022-09-09T03:39:33;100734.69;;;21.82;57.21
56082;BME280;41957;52.060;5.138;2022-09-09T03:41:59;100733.00;;;21.81;57.17
56082;BME280;41957;52.060;5.138;2022-09-09T03:44:24;100733.00;;;21.81;57.23
56082;BME280;41957;52.060;5.138;2022-09-09T03:46:49;100742.72;;;21.82;57.06
56082;BME280;41957;52.060;5.138;2022-09-09T03:49:15;100741.00;;;21.81;57.22
56082;BME280;41957;52.060;5.138;2022-09-09T03:51:40;100737.56;;;21.79;57.01
56082;BME280;41957;52.060;5.138;2022-09-09T03:54:07;100733.19;;;21.77;56.98
56082;BME280;41957;52.060;5.138;2022-09-09T03:56:35;100733.09;;;21.79;57.23
56082;BME280;41957;52.060;5.138;2022-09-09T03:59:00;100731.50;;;21.76;57.49
56082;BME280;41957;52.060;5.138;2022-09-09T04:01:26;100735.88;;;21.77;57.30
56082;BME280;41957;52.060;5.138;2022-09-09T04:03:53;100734.16;;;21.76;57.25
56082;BME280;41957;52.060;5.138;2022-09-09T04:06:19;100728.03;;;21.74;57.23
56082;BME280;41957;52.060;5.138;2022-09-09T04:08:46;100728.91;;;21.75;57.44
56082;BME280;41957;52.060;5.138;2022-09-09T04:11:14;100719.16;;;21.74;57.12
56082;BME280;41957;52.060;5.138;2022-09-09T04:13:42;100722.69;;;21.74;57.12
56082;BME280;41957;52.060;5.138;2022-09-09T04:16:09;100718.19;;;21.75;57.03
56082;BME280;41957;52.060;5.138;2022-09-09T04:18:35;100722.59;;;21.76;56.96
56082;BME280;41957;52.060;5.138;2022-09-09T04:21:01;100720.00;;;21.74;56.99
56082;BME280;41957;52.060;5.138;2022-09-09T04:23:27;100712.09;;;21.73;56.87
56082;BME280;41957;52.060;5.138;2022-09-09T04:25:57;100712.97;;;21.73;56.81
56082;BME280;41957;52.060;5.138;2022-09-09T04:28:24;100712.09;;;21.73;57.26
56082;BME280;41957;52.060;5.138;2022-09-09T04:30:50;100706.63;;;21.74;57.31
56082;BME280;41957;52.060;5.138;2022-09-09T04:33:18;100701.50;;;21.71;56.83
56082;BME280;41957;52.060;5.138;2022-09-09T04:35:49;100706.75;;;21.73;57.00
56082;BME280;41957;52.060;5.138;2022-09-09T04:38:16;100696.13;;;21.71;57.16
56082;BME280;41957;52.060;5.138;2022-09-09T04:40:43;100699.78;;;21.70;57.23
56082;BME280;41957;52.060;5.138;2022-09-09T04:43:08;100708.75;;;21.69;56.97
56082;BME280;41957;52.060;5.138;2022-09-09T04:45:34;100710.56;;;21.69;57.05
56082;BME280;41957;52.060;5.138;2022-09-09T04:48:00;100706.06;;;21.69;57.10
56082;BME280;41957;52.060;5.138;2022-09-09T04:50:27;100695.50;;;21.68;57.05
56082;BME280;41957;52.060;5.138;2022-09-09T04:52:53;100708.88;;;21.68;57.22
56082;BME280;41957;52.060;5.138;2022-09-09T04:55:19;100710.56;;;21.69;56.98
56082;BME280;41957;52.060;5.138;2022-09-09T04:57:44;100704.38;;;21.68;56.94
56082;BME280;41957;52.060;5.138;2022-09-09T05:00:10;100699.00;;;21.68;57.05
56082;BME280;41957;52.060;5.138;2022-09-09T05:02:39;100697.31;;;21.67;56.97
56082;BME280;41957;52.060;5.138;2022-09-09T05:05:06;100706.19;;;21.68;56.92
56082;BME280;41957;52.060;5.138;2022-09-09T05:07:32;100690.22;;;21.66;56.91
56082;BME280;41957;52.060;5.138;2022-09-09T05:09:57;100688.44;;;21.67;56.99
56082;BME280;41957;52.060;5.138;2022-09-09T05:12:23;100700.84;;;21.68;57.18
56082;BME280;41957;52.060;5.138;2022-09-09T05:14:51;100684.88;;;21.66;56.83
56082;BME280;41957;52.060;5.138;2022-09-09T05:17:16;100688.53;;;21.65;57.11
56082;BME280;41957;52.060;5.138;2022-09-09T05:19:41;100686.69;;;21.66;56.98
56082;BME280;41957;52.060;5.138;2022-09-09T05:22:07;100692.91;;;21.66;57.00
56082;BME280;41957;52.060;5.138;2022-09-09T05:24:33;100698.25;;;21.66;56.87
56082;BME280;41957;52.060;5.138;2022-09-09T05:26:58;100700.84;;;21.68;56.70
56082;BME280;41957;52.060;5.138;2022-09-09T05:29:26;100698.94;;;21.70;56.90
56082;BME280;41957;52.060;5.138;2022-09-09T05:31:52;100684.66;;;21.69;56.69
56082;BME280;41957;52.060;5.138;2022-09-09T05:34:17;100685.63;;;21.68;56.62
56082;BME280;41957;52.060;5.138;2022-09-09T05:36:43;100682.97;;;21.68;56.88
56082;BME280;41957;52.060;5.138;2022-09-09T05:39:08;100675.72;;;21.70;56.79
56082;BME280;41957;52.060;5.138;2022-09-09T05:41:34;100688.03;;;21.73;56.81
56082;BME280;41957;52.060;5.138;2022-09-09T05:44:01;100691.34;;;21.76;56.76
56082;BME280;41957;52.060;5.138;2022-09-09T05:46:26;100692.16;;;21.64;55.20
56082;BME280;41957;52.060;5.138;2022-09-09T05:48:52;100699.97;;;21.40;56.04
56082;BME280;41957;52.060;5.138;2022-09-09T05:51:24;100693.84;;;21.24;56.70
56082;BME280;41957;52.060;5.138;2022-09-09T05:53:50;100699.59;;;21.18;56.60
56082;BME280;41957;52.060;5.138;2022-09-09T05:56:21;100693.38;;;21.46;56.73
56082;BME280;41957;52.060;5.138;2022-09-09T05:58:48;100698.81;;;21.71;56.34
56082;BME280;41957;52.060;5.138;2022-09-09T06:01:15;100699.16;;;21.80;56.13
56082;BME280;41957;52.060;5.138;2022-09-09T06:03:42;100699.91;;;21.82;56.08
56082;BME280;41957;52.060;5.138;2022-09-09T06:06:10;100696.19;;;21.84;55.34
56082;BME280;41957;52.060;5.138;2022-09-09T06:08:39;100702.09;;;21.89;55.11
56082;BME280;41957;52.060;5.138;2022-09-09T06:11:07;100696.63;;;21.91;55.49
56082;BME280;41957;52.060;5.138;2022-09-09T06:13:33;100695.75;;;21.90;55.66
56082;BME280;41957;52.060;5.138;2022-09-09T06:15:58;100694.72;;;21.93;56.17
56082;BME280;41957;52.060;5.138;2022-09-09T06:18:25;100692.88;;;21.93;56.08
56082;BME280;41957;52.060;5.138;2022-09-09T06:23:20;100694.72;;;21.93;55.91
56082;BME280;41957;52.060;5.138;2022-09-09T06:25:46;100699.09;;;21.94;56.06
56082;BME280;41957;52.060;5.138;2022-09-09T06:28:11;100699.09;;;21.94;56.03
56082;BME280;41957;52.060;5.138;2022-09-09T06:30:36;100700.38;;;21.88;56.57
56082;BME280;41957;52.060;5.138;2022-09-09T06:33:02;100694.56;;;21.82;56.61
56082;BME280;41957;52.060;5.138;2022-09-09T06:35:27;100692.84;;;21.81;56.20
56082;BME280;41957;52.060;5.138;2022-09-09T06:37:53;100684.94;;;21.79;56.51
56082;BME280;41957;52.060;5.138;2022-09-09T06:40:19;100690.38;;;21.77;56.55
56082;BME280;41957;52.060;5.138;2022-09-09T06:42:44;100682.34;;;21.77;56.56
56082;BME280;41957;52.060;5.138;2022-09-09T06:45:10;100681.50;;;21.77;56.35
56082;BME280;41957;52.060;5.138;2022-09-09T06:47:36;100680.97;;;21.85;56.18
56082;BME280;41957;52.060;5.138;2022-09-09T06:50:01;100683.78;;;21.96;56.00
56082;BME280;41957;52.060;5.138;2022-09-09T06:52:26;100696.56;;;22.05;55.82
56082;BME280;41957;52.060;5.138;2022-09-09T06:54:52;100688.88;;;22.13;56.07
56082;BME280;41957;52.060;5.138;2022-09-09T06:57:18;100697.38;;;22.20;56.13
56082;BME280;41957;52.060;5.138;2022-09-09T06:59:44;100693.63;;;22.23;56.03
56082;BME280;41957;52.060;5.138;2022-09-09T07:02:09;100685.91;;;22.18;56.15
56082;BME280;41957;52.060;5.138;2022-09-09T07:04:35;100687.09;;;22.27;55.98
56082;BME280;41957;52.060;5.138;2022-09-09T07:07:00;100693.72;;;22.21;56.15
56082;BME280;41957;52.060;5.138;2022-09-09T07:09:26;100693.72;;;22.21;56.55
56082;BME280;41957;52.060;5.138;2022-09-09T07:11:52;100697.25;;;22.21;56.46
56082;BME280;41957;52.060;5.138;2022-09-09T07:14:17;100686.75;;;22.18;56.69
56082;BME280;41957;52.060;5.138;2022-09-09T07:16:44;100686.88;;;22.17;56.53
56082;BME280;41957;52.060;5.138;2022-09-09T07:19:11;100693.00;;;22.19;56.52
56082;BME280;41957;52.060;5.138;2022-09-09T07:21:37;100697.47;;;22.18;56.60
56082;BME280;41957;52.060;5.138;2022-09-09T07:24:03;100686.06;;;22.15;56.71
56082;BME280;41957;52.060;5.138;2022-09-09T07:26:32;100691.44;;;22.15;56.42
56082;BME280;41957;52.060;5.138;2022-09-09T07:28:58;100695.09;;;22.14;56.50
56082;BME280;41957;52.060;5.138;2022-09-09T07:31:26;100689.72;;;22.14;56.65
56082;BME280;41957;52.060;5.138;2022-09-09T07:33:52;100690.69;;;22.13;56.59
56082;BME280;41957;52.060;5.138;2022-09-09T07:38:49;100688.88;;;22.13;56.50
56082;BME280;41957;52.060;5.138;2022-09-09T07:41:28;100686.28;;;22.12;56.48
56082;BME280;41957;52.060;5.138;2022-09-09T07:43:54;100696.78;;;22.15;56.45
56082;BME280;41957;52.060;5.138;2022-09-09T07:46:21;100690.56;;;22.14;56.41
56082;BME280;41957;52.060;5.138;2022-09-09T07:48:48;100689.81;;;22.12;56.23
56082;BME280;41957;52.060;5.138;2022-09-09T07:51:19;100702.34;;;22.12;56.57
56082;BME280;41957;52.060;5.138;2022-09-09T07:53:46;100701.63;;;22.10;56.65
56082;BME280;41957;52.060;5.138;2022-09-09T07:56:15;100696.91;;;22.13;56.73
56082;BME280;41957;52.060;5.138;2022-09-09T07:58:42;100703.19;;;22.12;56.17
56082;BME280;41957;52.060;5.138;2022-09-09T08:01:17;100702.81;;;22.18;56.25
56082;BME280;41957;52.060;5.138;2022-09-09T08:03:51;100696.19;;;22.24;55.94
56082;BME280;41957;52.060;5.138;2022-09-09T08:06:17;100698.53;;;22.16;56.23
56082;BME280;41957;52.060;5.138;2022-09-09T08:08:42;100708.56;;;22.12;56.67
56082;BME280;41957;52.060;5.138;2022-09-09T08:11:13;100698.94;;;22.10;56.98
56082;BME280;41957;52.060;5.138;2022-09-09T08:13:42;100706.00;;;22.11;57.01
56082;BME280;41957;52.060;5.138;2022-09-09T08:16:23;100706.75;;;22.13;57.11
56082;BME280;41957;52.060;5.138;2022-09-09T08:18:50;100707.69;;;22.12;56.98
56082;BME280;41957;52.060;5.138;2022-09-09T08:21:19;100708.03;;;22.07;57.20
56082;BME280;41957;52.060;5.138;2022-09-09T08:23:45;100707.63;;;22.13;56.88
56082;BME280;41957;52.060;5.138;2022-09-09T08:26:17;100706.56;;;22.16;57.01
56082;BME280;41957;52.060;5.138;2022-09-09T08:28:44;100710.16;;;22.15;56.91
56082;BME280;41957;52.060;5.138;2022-09-09T08:31:18;100710.28;;;22.13;56.90
56082;BME280;41957;52.060;5.138;2022-09-09T08:33:44;100708.56;;;22.12;57.20
56082;BME280;41957;52.060;5.138;2022-09-09T08:36:13;100715.53;;;22.15;57.00
56082;BME280;41957;52.060;5.138;2022-09-09T08:38:41;100723.56;;;22.15;57.04
56082;BME280;41957;52.060;5.138;2022-09-09T08:50:19;100727.69;;;22.20;56.75
56082;BME280;41957;52.060;5.138;2022-09-09T08:55:37;100723.56;;;22.15;57.05
56082;BME280;41957;52.060;5.138;2022-09-09T08:58:19;100717.34;;;22.14;57.10
56082;BME280;41957;52.060;5.138;2022-09-09T09:03:37;100726.06;;;22.18;57.14
56082;BME280;41957;52.060;5.138;2022-09-09T09:11:26;100725.84;;;22.21;56.86
56082;BME280;41957;52.060;5.138;2022-09-09T09:13:59;100728.66;;;22.19;57.26
56082;BME280;41957;52.060;5.138;2022-09-09T09:16:34;100730.56;;;22.17;57.08
56082;BME280;41957;52.060;5.138;2022-09-09T09:19:03;100726.19;;;22.16;57.76
56082;BME280;41957;52.060;5.138;2022-09-09T09:24:52;100737.75;;;22.17;57.66
56082;BME280;41957;52.060;5.138;2022-09-09T09:27:31;100725.59;;;22.11;57.47
56082;BME280;41957;52.060;5.138;2022-09-09T09:29:59;100740.69;;;22.12;57.84
56082;BME280;41957;52.060;5.138;2022-09-09T09:32:28;100748.63;;;22.14;57.54
56082;BME280;41957;52.060;5.138;2022-09-09T09:34:56;100754.84;;;22.14;57.43
56082;BME280;41957;52.060;5.138;2022-09-09T09:37:29;100741.56;;;22.13;57.68
56082;BME280;41957;52.060;5.138;2022-09-09T09:39:55;100739.75;;;22.13;57.59
56082;BME280;41957;52.060;5.138;2022-09-09T09:42:20;100744.34;;;22.11;57.45
56082;BME280;41957;52.060;5.138;2022-09-09T09:44:46;100741.34;;;22.16;57.27
56082;BME280;41957;52.060;5.138;2022-09-09T09:47:13;100737.91;;;22.14;57.32
56082;BME280;41957;52.060;5.138;2022-09-09T09:49:51;100736.88;;;22.16;57.27
56082;BME280;41957;52.060;5.138;2022-09-09T09:52:21;100737.63;;;22.18;57.21
56082;BME280;41957;52.060;5.138;2022-09-09T09:54:47;100735.28;;;22.27;56.97
56082;BME280;41957;52.060;5.138;2022-09-09T09:57:16;100733.59;;;22.26;57.50
56082;BME280;41957;52.060;5.138;2022-09-09T09:59:43;100732.63;;;22.27;58.25
56082;BME280;41957;52.060;5.138;2022-09-09T10:02:20;100728.31;;;22.24;59.90
56082;BME280;41957;52.060;5.138;2022-09-09T10:05:00;100740.44;;;22.30;60.23
56082;BME280;41957;52.060;5.138;2022-09-09T10:07:26;100730.06;;;22.25;60.17
56082;BME280;41957;52.060;5.138;2022-09-09T10:09:56;100727.47;;;22.24;60.18
56082;BME280;41957;52.060;5.138;2022-09-09T10:18:08;100738.75;;;22.29;60.19
56082;BME280;41957;52.060;5.138;2022-09-09T10:20:54;100738.81;;;22.27;59.87
56082;BME280;41957;52.060;5.138;2022-09-09T10:31:45;100744.66;;;22.34;59.81
56082;BME280;41957;52.060;5.138;2022-09-09T10:36:49;100737.34;;;22.36;59.35
56082;BME280;41957;52.060;5.138;2022-09-09T10:39:25;100730.28;;;22.35;59.87
56082;BME280;41957;52.060;5.138;2022-09-09T10:42:09;100732.84;;;22.36;59.86
56082;BME280;41957;52.060;5.138;2022-09-09T10:47:49;100724.28;;;22.44;59.76
56082;BME280;41957;52.060;5.138;2022-09-09T10:55:42;100715.19;;;22.47;59.10
56082;BME280;41957;52.060;5.138;2022-09-09T10:58:17;100717.88;;;22.47;59.26
56082;BME280;41957;52.060;5.138;2022-09-09T11:00:52;100717.97;;;22.45;59.38
56082;BME280;41957;52.060;5.138;2022-09-09T11:03:22;100718.72;;;22.47;59.42
56082;BME280;41957;52.060;5.138;2022-09-09T11:05:54;100711.53;;;22.48;59.33
56082;BME280;41957;52.060;5.138;2022-09-09T11:08:26;100717.66;;;22.50;59.08
56082;BME280;41957;52.060;5.138;2022-09-09T11:10:59;100721.50;;;22.45;59.40
56082;BME280;41957;52.060;5.138;2022-09-09T11:13:42;100718.72;;;22.47;59.42
56082;BME280;41957;52.060;5.138;2022-09-09T11:18:42;100712.53;;;22.47;59.16
56082;BME280;41957;52.060;5.138;2022-09-09T11:21:34;100703.41;;;22.49;59.23
56082;BME280;41957;52.060;5.138;2022-09-09T11:24:02;100707.81;;;22.50;59.14
56082;BME280;41957;52.060;5.138;2022-09-09T11:26:37;100708.78;;;22.49;59.28
56082;BME280;41957;52.060;5.138;2022-09-09T11:29:24;100707.88;;;22.49;59.15
56082;BME280;41957;52.060;5.138;2022-09-09T11:34:42;100714.13;;;22.49;59.15
56082;BME280;41957;52.060;5.138;2022-09-09T11:37:21;100717.03;;;22.46;59.50
56082;BME280;41957;52.060;5.138;2022-09-09T11:42:28;100706.94;;;22.50;59.12
56082;BME280;41957;52.060;5.138;2022-09-09T11:44:53;100714.00;;;22.51;59.10
56082;BME280;41957;52.060;5.138;2022-09-09T11:47:26;100718.50;;;22.50;59.15
56082;BME280;41957;52.060;5.138;2022-09-09T11:50:06;100714.88;;;22.51;59.26
56082;BME280;41957;52.060;5.138;2022-09-09T11:52:38;100713.03;;;22.52;59.27
56082;BME280;41957;52.060;5.138;2022-09-09T11:58:03;100720.22;;;22.51;59.53
56082;BME280;41957;52.060;5.138;2022-09-09T12:08:48;100706.81;;;22.51;59.34
56082;BME280;41957;52.060;5.138;2022-09-09T12:11:29;100711.25;;;22.52;59.15
56082;BME280;41957;52.060;5.138;2022-09-09T12:13:58;100708.66;;;22.51;59.27
56082;BME280;41957;52.060;5.138;2022-09-09T12:16:36;100709.50;;;22.51;59.61
56082;BME280;41957;52.060;5.138;2022-09-09T12:19:21;100722.25;;;22.48;59.62
56082;BME280;41957;52.060;5.138;2022-09-09T12:22:07;100717.03;;;22.46;59.50
56082;BME280;41957;52.060;5.138;2022-09-09T12:27:36;100716.06;;;22.47;59.32
56082;BME280;41957;52.060;5.138;2022-09-09T12:30:09;100705.44;;;22.45;59.54
56082;BME280;41957;52.060;5.138;2022-09-09T12:32:36;100700.94;;;22.46;59.32
56082;BME280;41957;52.060;5.138;2022-09-09T12:35:08;100707.88;;;22.49;59.65
56082;BME280;41957;52.060;5.138;2022-09-09T12:37:41;100701.59;;;22.50;59.47
56082;BME280;41957;52.060;5.138;2022-09-09T12:42:52;100697.31;;;22.47;59.27
56082;BME280;41957;52.060;5.138;2022-09-09T12:45:20;100704.34;;;22.48;59.15
56082;BME280;41957;52.060;5.138;2022-09-09T12:48:02;100705.22;;;22.49;59.18
56082;BME280;41957;52.060;5.138;2022-09-09T12:50:32;100697.31;;;22.47;59.23
56082;BME280;41957;52.060;5.138;2022-09-09T12:53:02;100700.94;;;22.46;59.31
56082;BME280;41957;52.060;5.138;2022-09-09T12:55:31;100698.28;;;22.46;59.29
56082;BME280;41957;52.060;5.138;2022-09-09T12:57:59;100700.06;;;22.45;59.01
56082;BME280;41957;52.060;5.138;2022-09-09T13:00:26;100706.31;;;22.46;59.24
56082;BME280;41957;52.060;5.138;2022-09-09T13:02:57;100715.28;;;22.45;59.21
56082;BME280;41957;52.060;5.138;2022-09-09T13:05:38;100710.91;;;22.44;59.25
56082;BME280;41957;52.060;5.138;2022-09-09T13:08:09;100716.91;;;22.35;58.42
56082;BME280;41957;52.060;5.138;2022-09-09T13:10:38;100714.50;;;22.17;58.74
56082;BME280;41957;52.060;5.138;2022-09-09T13:13:14;100708.09;;;22.20;59.03
56082;BME280;41957;52.060;5.138;2022-09-09T13:15:49;100698.66;;;22.27;58.73
56082;BME280;41957;52.060;5.138;2022-09-09T13:18:15;100697.50;;;22.31;58.71
56082;BME280;41957;52.060;5.138;2022-09-09T13:20:47;100708.84;;;22.35;58.80
56082;BME280;41957;52.060;5.138;2022-09-09T13:23:13;100699.75;;;22.37;58.77
56082;BME280;41957;52.060;5.138;2022-09-09T13:25:40;100704.25;;;22.37;58.74
56082;BME280;41957;52.060;5.138;2022-09-09T13:28:20;100705.13;;;22.37;58.72
56082;BME280;41957;52.060;5.138;2022-09-09T13:30:59;100706.94;;;22.37;58.39
56082;BME280;41957;52.060;5.138;2022-09-09T13:33:34;100701.59;;;22.37;58.45
56082;BME280;41957;52.060;5.138;2022-09-09T13:36:03;100695.25;;;22.38;58.67
56082;BME280;41957;52.060;5.138;2022-09-09T13:38:31;100692.56;;;22.38;58.64
56082;BME280;41957;52.060;5.138;2022-09-09T13:41:00;100705.22;;;22.36;58.71
56082;BME280;41957;52.060;5.138;2022-09-09T13:43:44;100704.13;;;22.26;58.95
56082;BME280;41957;52.060;5.138;2022-09-09T13:51:44;100694.06;;;22.42;58.83
56082;BME280;41957;52.060;5.138;2022-09-09T13:54:13;100701.16;;;22.43;58.62
56082;BME280;41957;52.060;5.138;2022-09-09T13:56:40;100700.41;;;22.41;58.89
56082;BME280;41957;52.060;5.138;2022-09-09T13:59:10;100699.44;;;22.42;59.03
56082;BME280;41957;52.060;5.138;2022-09-09T14:01:36;100699.63;;;22.39;58.83
56082;BME280;41957;52.060;5.138;2022-09-09T14:04:03;100705.63;;;22.42;59.14
56082;BME280;41957;52.060;5.138;2022-09-09T14:06:29;100700.94;;;22.46;58.74
56082;BME280;41957;52.060;5.138;2022-09-09T14:08:54;100708.88;;;22.48;58.76
56082;BME280;41957;52.060;5.138;2022-09-09T14:11:20;100708.09;;;22.45;59.26
56082;BME280;41957;52.060;5.138;2022-09-09T14:13:47;100703.41;;;22.49;58.99
56082;BME280;41957;52.060;5.138;2022-09-09T14:16:15;100704.34;;;22.48;59.30
56082;BME280;41957;52.060;5.138;2022-09-09T14:18:40;100704.56;;;22.45;59.42
56082;BME280;41957;52.060;5.138;2022-09-09T14:21:06;100695.91;;;22.54;59.24
56082;BME280;41957;52.060;5.138;2022-09-09T14:23:31;100701.91;;;22.58;59.02
56082;BME280;41957;52.060;5.138;2022-09-09T14:25:57;100699.13;;;22.59;59.18
56082;BME280;41957;52.060;5.138;2022-09-09T14:28:22;100704.47;;;22.59;59.23
56082;BME280;41957;52.060;5.138;2022-09-09T14:30:48;100692.56;;;22.63;59.35
56082;BME280;41957;52.060;5.138;2022-09-09T14:33:15;100701.38;;;22.65;59.64
56082;BME280;41957;52.060;5.138;2022-09-09T14:35:41;100687.84;;;22.67;59.70
56082;BME280;41957;52.060;5.138;2022-09-09T14:38:08;100683.47;;;22.66;59.62
56082;BME280;41957;52.060;5.138;2022-09-09T14:40:35;100675.44;;;22.66;59.78
56082;BME280;41957;52.060;5.138;2022-09-09T14:43:01;100699.44;;;22.67;59.89
56082;BME280;41957;52.060;5.138;2022-09-09T14:45:27;100681.63;;;22.66;59.81
56082;BME280;41957;52.060;5.138;2022-09-09T14:47:53;100691.63;;;22.64;60.02
56082;BME280;41957;52.060;5.138;2022-09-09T14:50:20;100690.66;;;22.65;60.00
56082;BME280;41957;52.060;5.138;2022-09-09T14:52:45;100696.78;;;22.67;59.80
56082;BME280;41957;52.060;5.138;2022-09-09T14:55:11;100700.41;;;22.66;60.09
56082;BME280;41957;52.060;5.138;2022-09-09T14:57:37;100704.81;;;22.67;60.04